Time;durP1;ratioP1;P1;durP2;ratioP2;P2;SDS_P1;SDS_P2;PMS_P1;PMS_P2;Temp;Humidity;BMP_temperature;BMP_pressure;BME280_temperature;BME280_humidity;BME280_pressure;Samples;Min_cycle;Max_cycle;Signal;HPM_P1;HPM_P2
2023/05/01 00:00:36;;;;;;;5.90;2.70;;;;;;;5.33;100.00;99270.94;104265;1264;61717;-47
2023/05/01 00:03:03;;;;;;;4.30;2.60;;;;;;;5.32;100.00;99276.83;108435;1264;71760;-49
2023/05/01 00:05:30;;;;;;;6.20;2.00;;;;;;;5.30;100.00;99277.98;108764;1257;66597;-49
2023/05/01 00:07:57;;;;;;;3.40;2.10;;;;;;;5.26;100.00;99279.92;108785;1257;72700;-49
2023/05/01 00:10:24;;;;;;;4.60;2.00;;;;;;;5.20;100.00;99285.45;108689;1262;59620;-49
2023/05/01 00:12:50;;;;;;;4.70;2.40;;;;;;;5.16;100.00;99288.27;108807;1256;60718;-49
2023/05/01 00:15:17;;;;;;;2.30;1.60;;;;;;;5.12;100.00;99288.73;108830;1257;73552;-49
2023/05/01 00:17:44;;;;;;;7.30;2.30;;;;;;;5.10;100.00;99294.89;108873;1257;67135;-49
2023/05/01 00:20:11;;;;;;;4.90;2.00;;;;;;;5.08;100.00;99294.40;108849;1256;73092;-49
2023/05/01 00:22:38;;;;;;;5.80;1.40;;;;;;;5.10;100.00;99297.36;104991;1261;61280;-50
2023/05/01 00:25:05;;;;;;;5.30;1.90;;;;;;;5.12;100.00;99299.05;104958;1261;60294;-49
2023/05/01 00:27:32;;;;;;;5.00;1.60;;;;;;;5.14;100.00;99297.92;106691;1255;72949;-49
2023/05/01 00:29:59;;;;;;;4.30;1.50;;;;;;;5.16;100.00;99296.63;104644;1258;67315;-48
2023/05/01 00:32:25;;;;;;;3.20;1.60;;;;;;;5.18;100.00;99300.81;104731;1262;71789;-48
2023/05/01 00:34:53;;;;;;;4.60;1.70;;;;;;;5.21;100.00;99305.32;104792;1258;62415;-47
2023/05/01 00:37:20;;;;;;;3.30;1.50;;;;;;;5.23;100.00;99303.48;104654;1257;59913;-48
2023/05/01 00:39:46;;;;;;;2.40;1.30;;;;;;;5.27;100.00;99302.11;104841;1257;71762;-48
2023/05/01 00:42:13;;;;;;;3.40;1.20;;;;;;;5.31;100.00;99302.85;104767;1260;67849;-48
2023/05/01 00:44:40;;;;;;;7.70;1.50;;;;;;;5.38;100.00;99304.60;104549;1260;75015;-48
2023/05/01 00:47:06;;;;;;;3.70;1.10;;;;;;;5.44;100.00;99304.20;104327;1260;63516;-49
2023/05/01 00:49:34;;;;;;;5.10;1.30;;;;;;;5.50;100.00;99304.35;104310;1254;62292;-49
2023/05/01 00:52:00;;;;;;;2.30;1.40;;;;;;;5.55;100.00;99303.99;104571;1257;73450;-49
2023/05/01 00:54:27;;;;;;;4.60;1.20;;;;;;;5.61;100.00;99306.24;104646;1257;71953;-48
2023/05/01 00:56:54;;;;;;;2.10;1.40;;;;;;;5.70;100.00;99307.37;104792;1260;72430;-50
2023/05/01 00:59:22;;;;;;;2.60;1.10;;;;;;;5.78;100.00;99307.09;104694;1257;60067;-50
2023/05/01 01:01:49;;;;;;;6.50;1.30;;;;;;;5.85;100.00;99304.88;105725;1258;59707;-48
2023/05/01 01:04:19;;;;;;;2.50;1.80;;;;;;;5.92;100.00;99302.16;104867;1257;74047;-46
2023/05/01 01:07:10;;;;;;;4.40;1.60;;;;;;;5.98;100.00;99304.26;104630;1257;72569;-47
2023/05/01 01:09:37;;;;;;;2.80;1.30;;;;;;;6.04;100.00;99305.09;104789;1257;75499;-50
2023/05/01 01:12:29;;;;;;;4.00;1.20;;;;;;;6.08;100.00;99303.16;104693;1257;61749;-50
2023/05/01 01:15:01;;;;;;;2.40;1.10;;;;;;;6.13;100.00;99302.64;104662;1251;59555;-49
2023/05/01 01:17:36;;;;;;;1.80;0.90;;;;;;;6.15;100.00;99301.29;105797;1254;74310;-48
2023/05/01 01:20:18;;;;;;;2.30;1.00;;;;;;;6.20;100.00;99301.67;105364;1254;72869;-48
2023/05/01 01:22:49;;;;;;;4.10;1.20;;;;;;;6.24;100.00;99296.66;104982;1254;74375;-49
2023/05/01 01:25:24;;;;;;;2.90;1.00;;;;;;;6.31;100.00;99299.08;105053;1251;61270;-50
2023/05/01 01:28:10;;;;;;;5.60;1.00;;;;;;;6.36;100.00;99298.36;104943;1257;59620;-49
2023/05/01 01:30:59;;;;;;;5.70;1.20;;;;;;;6.42;100.00;99297.58;105419;1254;71759;-49
2023/05/01 01:33:58;;;;;;;2.80;1.20;;;;;;;6.48;100.00;99299.48;104909;1256;66540;-50
2023/05/01 01:37:05;;;;;;;2.60;1.50;;;;;;;6.54;100.00;99303.37;105715;1257;72706;-47
2023/05/01 01:39:40;;;;;;;5.80;1.40;;;;;;;6.58;100.00;99309.27;104960;1255;63278;-49
2023/05/01 01:42:08;;;;;;;2.90;1.10;;;;;;;6.61;100.00;99307.92;104866;1259;61060;-51
2023/05/01 01:44:40;;;;;;;2.30;1.10;;;;;;;6.62;100.00;99309.98;105521;1255;73791;-49
2023/05/01 01:47:11;;;;;;;4.50;1.30;;;;;;;6.64;100.00;99317.20;104917;1258;66981;-48
2023/05/01 01:49:41;;;;;;;2.90;1.40;;;;;;;6.64;100.00;99315.63;104981;1255;74408;-48
2023/05/01 01:52:09;;;;;;;2.50;1.00;;;;;;;6.61;100.00;99316.09;105022;1251;60948;-48
2023/05/01 01:54:37;;;;;;;3.70;1.30;;;;;;;6.58;100.00;99323.52;105033;1251;61674;-49
2023/05/01 01:57:06;;;;;;;4.70;1.40;;;;;;;6.55;100.00;99328.82;105186;1257;73750;-49
2023/05/01 01:59:34;;;;;;;3.20;1.20;;;;;;;6.52;100.00;99334.11;105456;1251;70464;-50
2023/05/01 02:02:01;;;;;;;3.10;0.90;;;;;;;6.50;100.00;99333.65;104780;1251;74493;-44
2023/05/01 02:04:28;;;;;;;3.00;1.10;;;;;;;6.49;100.00;99336.55;105069;1254;64705;-46
2023/05/01 02:06:56;;;;;;;5.30;1.10;;;;;;;6.49;100.00;99341.52;104799;1256;62480;-48
2023/05/01 02:09:23;;;;;;;2.60;0.90;;;;;;;6.52;100.00;99337.13;105058;1251;71344;-49
2023/05/01 02:11:50;;;;;;;2.60;0.90;;;;;;;6.55;100.00;99342.02;104963;1259;68763;-49
2023/05/01 02:14:17;;;;;;;1.80;0.90;;;;;;;6.58;100.00;99340.46;105128;1255;73454;-47
2023/05/01 02:16:44;;;;;;;3.40;1.10;;;;;;;6.61;100.00;99350.35;105408;1257;62200;-48
2023/05/01 02:19:12;;;;;;;2.70;1.00;;;;;;;6.62;100.00;99357.60;104888;1258;60014;-47
2023/05/01 02:21:39;;;;;;;3.00;1.10;;;;;;;6.61;100.00;99352.99;104798;1254;75367;-46
2023/05/01 02:24:05;;;;;;;4.00;1.00;;;;;;;6.59;100.00;99351.64;104950;1257;69931;-48
2023/05/01 02:26:42;;;;;;;1.60;0.80;;;;;;;6.57;100.00;99364.74;104839;1259;75022;-46
2023/05/01 02:29:09;;;;;;;7.70;1.00;;;;;;;6.55;100.00;99367.86;104702;1258;60528;-48
2023/05/01 02:31:36;;;;;;;4.30;0.90;;;;;;;6.55;100.00;99367.35;104762;1254;60536;-46
2023/05/01 02:34:03;;;;;;;3.20;0.80;;;;;;;6.56;100.00;99367.27;104838;1257;76089;-48
2023/05/01 02:36:32;;;;;;;3.60;0.90;;;;;;;6.58;100.00;99365.06;105176;1251;67210;-48
2023/05/01 02:38:59;;;;;;;1.60;0.80;;;;;;;6.59;100.00;99375.17;106652;1255;73103;-50
2023/05/01 02:41:26;;;;;;;2.20;0.80;;;;;;;6.60;100.00;99377.46;105018;1254;63910;-48
2023/05/01 02:44:00;;;;;;;1.40;0.80;;;;;;;6.60;100.00;99376.73;105011;1259;60389;-49
2023/05/01 02:46:27;;;;;;;2.80;0.70;;;;;;;6.60;100.00;99381.38;106584;1254;74550;-48
2023/05/01 02:48:54;;;;;;;2.20;0.90;;;;;;;6.61;100.00;99383.84;104735;1254;68838;-48
2023/05/01 02:51:21;;;;;;;2.40;0.70;;;;;;;6.63;100.00;99384.69;104491;1251;72917;-49
2023/05/01 02:53:47;;;;;;;5.20;1.00;;;;;;;6.63;100.00;99390.21;104751;1257;61952;-50
2023/05/01 02:56:17;;;;;;;2.00;0.90;;;;;;;6.63;100.00;99387.89;104919;1251;61187;-49
2023/05/01 02:58:44;;;;;;;0.90;0.60;;;;;;;6.63;100.00;99395.55;104978;1251;75593;-48
2023/05/01 03:01:11;;;;;;;1.10;0.80;;;;;;;6.64;100.00;99395.52;104849;1260;68932;-49
2023/05/01 03:03:38;;;;;;;3.30;0.70;;;;;;;6.65;100.00;99400.27;104856;1251;73022;-48
2023/05/01 03:06:05;;;;;;;1.50;0.60;;;;;;;6.66;100.00;99404.16;108897;1253;61098;-49
2023/05/01 03:08:32;;;;;;;3.80;0.70;;;;;;;6.67;100.00;99410.36;109136;1251;61930;-49
2023/05/01 03:10:58;;;;;;;1.30;0.60;;;;;;;6.67;100.00;99407.85;109106;1252;72595;-48
2023/05/01 03:13:25;;;;;;;1.10;0.70;;;;;;;6.68;100.00;99412.63;109041;1251;69171;-48
2023/05/01 03:15:52;;;;;;;1.10;0.70;;;;;;;6.70;100.00;99409.73;109045;1252;75040;-48
2023/05/01 03:18:19;;;;;;;2.60;0.60;;;;;;;6.70;100.00;99413.80;109008;1253;62539;-48
2023/05/01 03:20:58;;;;;;;7.60;0.70;;;;;;;6.72;100.00;99414.97;109058;1252;60761;-49
2023/05/01 03:23:25;;;;;;;1.90;0.60;;;;;;;6.75;100.00;99421.83;108951;1254;73154;-48
2023/05/01 03:25:51;;;;;;;1.40;0.70;;;;;;;6.77;100.00;99424.60;108968;1253;65818;-48
2023/05/01 03:28:19;;;;;;;2.20;0.70;;;;;;;6.79;100.00;99424.51;109089;1253;73459;-48
2023/05/01 03:30:46;;;;;;;3.10;0.70;;;;;;;6.82;100.00;99426.71;107928;1254;60691;-49
2023/05/01 03:33:13;;;;;;;1.40;0.60;;;;;;;6.85;100.00;99428.75;105006;1253;64227;-46
2023/05/01 03:35:40;;;;;;;2.00;0.60;;;;;;;6.86;100.00;99429.44;105535;1254;76102;-49
2023/05/01 03:38:08;;;;;;;1.10;0.50;;;;;;;6.88;100.00;99429.90;104957;1254;70106;-49
2023/05/01 03:41:07;;;;;;;1.10;0.60;;;;;;;6.92;100.00;99431.70;104995;1254;73953;-49
2023/05/01 03:43:57;;;;;;;2.80;0.70;;;;;;;6.95;100.00;99433.35;105862;1254;62709;-49
2023/05/01 03:46:29;;;;;;;2.00;0.60;;;;;;;6.97;100.00;99433.13;105516;1253;61638;-46
2023/05/01 03:48:56;;;;;;;2.70;0.60;;;;;;;6.98;100.00;99437.87;104737;1253;74042;-47
2023/05/01 03:51:23;;;;;;;1.20;0.50;;;;;;;7.00;100.00;99443.48;104704;1258;68008;-49
2023/05/01 03:53:51;;;;;;;0.90;0.50;;;;;;;7.04;100.00;99441.92;104493;1258;73743;-49
2023/05/01 03:56:18;;;;;;;1.90;0.50;;;;;;;7.10;100.00;99445.80;104954;1254;60621;-48
2023/05/01 03:58:45;;;;;;;3.70;0.60;;;;;;;7.14;100.00;99444.39;105536;1253;60328;-51
2023/05/01 04:01:13;;;;;;;1.00;0.50;;;;;;;7.19;100.00;99445.42;105167;1254;75638;-48
2023/05/01 04:03:41;;;;;;;2.00;0.50;;;;;;;7.29;100.00;99447.75;106213;1252;70354;-48
2023/05/01 04:06:09;;;;;;;1.00;0.50;;;;;;;7.40;100.00;99449.05;104645;1254;74869;-50
2023/05/01 04:08:35;;;;;;;1.40;0.50;;;;;;;7.55;100.00;99450.93;105712;1253;61351;-49
2023/05/01 04:11:02;;;;;;;0.80;0.40;;;;;;;7.76;100.00;99450.80;105058;1254;60527;-50
2023/05/01 04:13:29;;;;;;;2.20;0.50;;;;;;;7.99;100.00;99443.95;106057;1254;73985;-49
2023/05/01 04:15:58;;;;;;;2.80;0.40;;;;;;;8.21;100.00;99446.89;104601;1252;65989;-47
2023/05/01 04:18:25;;;;;;;0.70;0.50;;;;;;;8.40;100.00;99442.16;105644;1256;74960;-47
2023/05/01 04:20:52;;;;;;;0.80;0.50;;;;;;;8.56;100.00;99445.39;104715;1252;61781;-47
2023/05/01 04:23:19;;;;;;;0.70;0.40;;;;;;;8.76;100.00;99443.77;104939;1253;62673;-48
2023/05/01 04:25:49;;;;;;;1.00;0.50;;;;;;;9.08;100.00;99446.73;105218;1253;75705;-51
2023/05/01 04:28:16;;;;;;;0.60;0.40;;;;;;;9.40;100.00;99446.41;104887;1253;69471;-47
2023/05/01 04:30:43;;;;;;;0.90;0.30;;;;;;;9.59;100.00;99443.00;104860;1257;71854;-48
2023/05/01 04:33:10;;;;;;;0.60;0.40;;;;;;;9.67;100.00;99445.84;104808;1254;62138;-48
2023/05/01 04:35:38;;;;;;;1.30;0.40;;;;;;;9.69;100.00;99450.59;105106;1254;62418;-48
2023/05/01 04:38:05;;;;;;;0.60;0.30;;;;;;;9.64;100.00;99452.06;105267;1256;75403;-47
2023/05/01 04:40:33;;;;;;;0.50;0.40;;;;;;;9.55;100.00;99453.23;105115;1257;69980;-48
2023/05/01 04:42:59;;;;;;;1.60;0.40;;;;;;;9.43;100.00;99456.50;104719;1253;72342;-47
2023/05/01 04:45:26;;;;;;;0.70;0.30;;;;;;;9.33;100.00;99460.23;104936;1254;61308;-48
2023/05/01 04:47:53;;;;;;;0.90;0.30;;;;;;;9.25;100.00;99457.90;105727;1253;60753;-50
2023/05/01 04:50:20;;;;;;;4.30;0.30;;;;;;;9.17;100.00;99462.41;105128;1257;76165;-49
2023/05/01 04:52:47;;;;;;;0.40;0.30;;;;;;;9.11;100.00;99466.82;105462;1253;66529;-49
2023/05/01 04:55:14;;;;;;;1.70;0.50;;;;;;;9.07;100.00;99471.63;104930;1257;74993;-48
2023/05/01 04:57:58;;;;;;;1.60;0.30;;;;;;;9.04;100.00;99472.86;104994;1253;60520;-47
2023/05/01 05:00:26;;;;;;;2.90;0.30;;;;;;;9.01;100.00;99481.23;104879;1258;60563;-49
2023/05/01 05:02:54;;;;;;;1.00;0.30;;;;;;;8.99;100.00;99478.64;104782;1253;73543;-48
2023/05/01 05:05:22;;;;;;;0.80;0.30;;;;;;;8.99;100.00;99486.88;104904;1254;68351;-50
2023/05/01 05:07:49;;;;;;;0.50;0.20;;;;;;;9.03;100.00;99483.81;104798;1253;74814;-47
2023/05/01 05:10:35;;;;;;;0.50;0.30;;;;;;;9.09;100.00;99491.42;104797;1253;60585;-48
2023/05/01 05:13:24;;;;;;;1.10;0.30;;;;;;;9.11;100.00;99491.84;105761;1253;62368;-47
2023/05/01 05:16:03;;;;;;;1.00;0.20;;;;;;;9.11;100.00;99490.24;104851;1254;72886;-47
2023/05/01 05:18:30;;;;;;;5.40;0.40;;;;;;;9.12;100.00;99491.08;106267;1253;69694;-47
2023/05/01 05:20:57;;;;;;;0.40;0.20;;;;;;;9.14;100.00;99494.05;108574;1252;72981;-49
2023/05/01 05:23:24;;;;;;;0.50;0.30;;;;;;;9.16;100.00;99498.81;104811;1253;60489;-47
2023/05/01 05:25:51;;;;;;;0.50;0.30;;;;;;;9.19;100.00;99499.05;104817;1253;62690;-51
2023/05/01 05:28:18;;;;;;;2.10;0.30;;;;;;;9.23;100.00;99499.38;104848;1258;74567;-48
2023/05/01 05:30:45;;;;;;;3.20;0.30;;;;;;;9.28;100.00;99501.48;104718;1254;66551;-47
2023/05/01 05:33:14;;;;;;;0.50;0.20;;;;;;;9.30;100.00;99511.36;106358;1253;72898;-49
2023/05/01 05:35:42;;;;;;;2.60;0.70;;;;;;;9.34;100.00;99505.67;104817;1254;60615;-47
2023/05/01 05:38:09;;;;;;;0.90;0.30;;;;;;;9.39;100.00;99511.14;104982;1256;60523;-49
2023/05/01 05:40:37;;;;;;;0.20;0.20;;;;;;;9.47;100.00;99517.92;104681;1257;74016;-49
2023/05/01 05:43:04;;;;;;;0.60;0.20;;;;;;;9.54;100.00;99517.95;104768;1253;69697;-51
2023/05/01 05:45:34;;;;;;;5.80;0.20;;;;;;;9.59;100.00;99523.45;109038;1253;72892;-49
2023/05/01 05:48:02;;;;;;;2.80;0.20;;;;;;;9.63;100.00;99519.81;104923;1259;61251;-47
2023/05/01 05:50:30;;;;;;;0.30;0.20;;;;;;;9.68;100.00;99521.20;105108;1252;60467;-48
2023/05/01 05:52:57;;;;;;;1.10;0.20;;;;;;;9.74;100.00;99524.16;104925;1257;76655;-49
2023/05/01 05:55:24;;;;;;;1.10;0.20;;;;;;;9.78;100.00;99527.55;105420;1253;68712;-48
2023/05/01 05:58:00;;;;;;;0.50;0.30;;;;;;;9.81;100.00;99525.21;105463;1254;71771;-49
2023/05/01 06:00:27;;;;;;;0.50;0.10;;;;;;;9.85;100.00;99530.93;105048;1253;60878;-50
2023/05/01 06:02:56;;;;;;;0.20;0.20;;;;;;;9.91;100.00;99536.73;109092;1252;61455;-50
2023/05/01 06:05:25;;;;;;;1.70;0.20;;;;;;;9.99;100.00;99533.48;108837;1253;73951;-48
2023/05/01 06:07:53;;;;;;;0.20;0.10;;;;;;;10.07;100.00;99530.58;108920;1253;70871;-49
2023/05/01 06:10:20;;;;;;;1.40;0.10;;;;;;;10.12;100.00;99532.14;108969;1253;73345;-46
2023/05/01 06:12:47;;;;;;;0.20;0.10;;;;;;;10.19;100.00;99539.67;108926;1252;59201;-47
2023/05/01 06:15:17;;;;;;;0.50;0.20;;;;;;;10.29;100.00;99532.71;108760;1251;60515;-47
2023/05/01 06:17:50;;;;;;;1.20;0.20;;;;;;;10.39;100.00;99534.73;108213;1254;72479;-49
2023/05/01 06:20:17;;;;;;;0.20;0.20;;;;;;;10.47;100.00;99543.30;108744;1251;66377;-50
2023/05/01 06:22:45;;;;;;;1.80;0.20;;;;;;;10.53;100.00;99542.26;108856;1251;74180;-46
2023/05/01 06:25:26;;;;;;;3.00;0.20;;;;;;;10.59;100.00;99548.77;105108;1254;60901;-51
2023/05/01 06:27:53;;;;;;;0.30;0.10;;;;;;;10.65;100.00;99543.81;104758;1251;60474;-48
2023/05/01 06:30:21;;;;;;;0.50;0.00;;;;;;;10.69;100.00;99549.17;104917;1257;74092;-50
2023/05/01 06:32:48;;;;;;;0.60;0.10;;;;;;;10.74;100.00;99551.05;105155;1251;65924;-49
2023/05/01 06:35:15;;;;;;;2.00;0.10;;;;;;;10.77;100.00;99553.40;108913;1252;72563;-49
2023/05/01 06:37:42;;;;;;;0.30;0.10;;;;;;;10.80;100.00;99551.58;108997;1251;60253;-49
2023/05/01 06:40:10;;;;;;;1.30;0.10;;;;;;;10.83;100.00;99553.95;108970;1251;62595;-51
2023/05/01 06:42:37;;;;;;;3.50;0.10;;;;;;;10.87;100.00;99556.83;108974;1251;74308;-49
2023/05/01 06:45:08;;;;;;;4.30;0.20;;;;;;;10.89;100.00;99563.88;106002;1256;70272;-46
2023/05/01 06:47:34;;;;;;;0.40;0.20;;;;;;;10.91;100.00;99559.98;105225;1254;71405;-49
2023/05/01 06:50:03;;;;;;;0.40;0.10;;;;;;;10.92;100.00;99562.81;105271;1256;62738;-47
2023/05/01 06:52:32;;;;;;;0.60;0.20;;;;;;;10.96;100.00;99568.70;105744;1256;62445;-48
2023/05/01 06:54:59;;;;;;;0.20;0.10;;;;;;;11.02;100.00;99566.09;105012;1252;73135;-46
2023/05/01 06:57:25;;;;;;;1.30;0.10;;;;;;;11.06;100.00;99569.27;105796;1251;69565;-50
2023/05/01 06:59:52;;;;;;;0.50;0.10;;;;;;;11.11;100.00;99568.09;104965;1259;74904;-46
2023/05/01 07:02:20;;;;;;;2.70;0.20;;;;;;;11.17;100.00;99574.23;105772;1252;60638;-47
2023/05/01 07:04:47;;;;;;;4.50;0.10;;;;;;;11.21;100.00;99571.48;105489;1251;60850;-46
2023/05/01 07:07:14;;;;;;;3.20;0.20;;;;;;;11.26;100.00;99569.25;105068;1257;75758;-48
2023/05/01 07:09:40;;;;;;;0.20;0.10;;;;;;;11.30;100.00;99569.21;105126;1254;65235;-51
2023/05/01 07:12:07;;;;;;;0.20;0.10;;;;;;;11.37;100.00;99571.20;105112;1251;71284;-46
2023/05/01 07:14:34;;;;;;;1.20;0.10;;;;;;;11.43;100.00;99574.47;104908;1253;61469;-48
2023/05/01 07:17:02;;;;;;;0.10;0.10;;;;;;;11.40;100.00;99577.86;105168;1253;62521;-46
2023/05/01 07:19:29;;;;;;;1.30;0.00;;;;;;;11.38;100.00;99580.48;105363;1253;73882;-51
2023/05/01 07:21:56;;;;;;;0.10;0.10;;;;;;;11.38;100.00;99590.15;105053;1256;68244;-47
2023/05/01 07:24:22;;;;;;;0.10;0.10;;;;;;;11.40;100.00;99590.63;105063;1256;71524;-49
2023/05/01 07:26:50;;;;;;;2.70;0.10;;;;;;;11.40;100.00;99601.23;105100;1253;60595;-50
2023/05/01 07:29:17;;;;;;;0.20;0.10;;;;;;;11.40;100.00;99594.03;105690;1257;60458;-46
2023/05/01 07:31:44;;;;;;;0.90;0.10;;;;;;;11.42;100.00;99591.91;104875;1253;74685;-46
2023/05/01 07:34:12;;;;;;;0.30;0.10;;;;;;;11.48;100.00;99594.13;106356;1253;68305;-48
2023/05/01 07:36:39;;;;;;;1.50;0.10;;;;;;;11.54;100.00;99602.05;105016;1256;73748;-48
2023/05/01 07:39:06;;;;;;;0.60;0.10;;;;;;;11.60;100.00;99609.25;105122;1254;61018;-45
2023/05/01 07:41:32;;;;;;;0.40;0.10;;;;;;;11.63;100.00;99609.65;105056;1257;60374;-50
2023/05/01 07:44:00;;;;;;;2.30;0.20;;;;;;;11.63;100.00;99607.50;105057;1251;76100;-45
2023/05/01 07:46:26;;;;;;;0.20;0.10;;;;;;;11.66;100.00;99609.09;105052;1257;66002;-47
2023/05/01 07:48:53;;;;;;;1.80;0.20;;;;;;;11.73;100.00;99609.10;105161;1253;74531;-49
2023/05/01 07:51:20;;;;;;;1.80;0.10;;;;;;;11.80;100.00;99612.35;105176;1253;60508;-46
2023/05/01 07:53:48;;;;;;;2.70;0.10;;;;;;;11.85;100.00;99618.15;105123;1256;60373;-49
2023/05/01 07:56:15;;;;;;;0.30;0.10;;;;;;;11.90;100.00;99616.45;104892;1251;74445;-46
2023/05/01 07:58:42;;;;;;;0.40;0.20;;;;;;;11.96;100.00;99621.14;105015;1251;66509;-48
2023/05/01 08:01:09;;;;;;;1.50;0.20;;;;;;;12.02;100.00;99615.92;104898;1253;71318;-48
2023/05/01 08:03:36;;;;;;;0.30;0.10;;;;;;;12.08;100.00;99616.85;105128;1253;60429;-51
2023/05/01 08:06:04;;;;;;;0.20;0.10;;;;;;;12.14;100.00;99621.39;107653;1256;62712;-51
2023/05/01 08:08:31;;;;;;;0.40;0.10;;;;;;;12.17;100.00;99633.43;105609;1254;74505;-49
2023/05/01 08:10:58;;;;;;;0.10;0.10;;;;;;;12.17;100.00;99622.64;104988;1256;69016;-48
2023/05/01 08:13:25;;;;;;;1.80;0.10;;;;;;;12.16;100.00;99625.92;104971;1254;73043;-48
2023/05/01 08:15:52;;;;;;;2.90;0.10;;;;;;;12.20;100.00;99625.01;108987;1251;62330;-49
2023/05/01 08:18:19;;;;;;;0.20;0.10;;;;;;;12.23;100.00;99625.02;105293;1251;60537;-48
2023/05/01 08:20:47;;;;;;;1.10;0.10;;;;;;;12.27;100.00;99627.65;105483;1251;75872;-48
2023/05/01 08:23:17;;;;;;;1.40;0.10;;;;;;;12.32;100.00;99622.36;105066;1251;67967;-49
2023/05/01 08:25:49;;;;;;;0.40;0.10;;;;;;;12.34;100.00;99623.13;106588;1256;71553;-48
2023/05/01 08:28:17;;;;;;;0.80;0.10;;;;;;;12.36;100.00;99619.77;105873;1256;60891;-50
2023/05/01 08:30:44;;;;;;;0.40;0.10;;;;;;;12.42;100.00;99621.58;105205;1251;60648;-48
2023/05/01 08:33:11;;;;;;;1.50;0.10;;;;;;;12.51;100.00;99618.73;105136;1251;71917;-49
2023/05/01 08:35:38;;;;;;;0.20;0.10;;;;;;;12.62;100.00;99616.25;105011;1252;68422;-49
2023/05/01 08:38:05;;;;;;;1.80;0.10;;;;;;;12.74;100.00;99611.20;105076;1253;71711;-48
2023/05/01 08:40:33;;;;;;;1.90;0.20;;;;;;;12.83;100.00;99624.52;105123;1256;61518;-50
2023/05/01 08:43:01;;;;;;;0.40;0.10;;;;;;;12.91;100.00;99612.35;105456;1251;61210;-47
2023/05/01 08:45:29;;;;;;;0.40;0.10;;;;;;;12.92;100.00;99620.04;104623;1256;76276;-49
2023/05/01 08:47:56;;;;;;;1.50;0.10;;;;;;;12.94;100.00;99621.00;105067;1253;68573;-47
2023/05/01 08:50:23;;;;;;;0.20;0.10;;;;;;;12.95;100.00;99616.48;104490;1257;75273;-53
2023/05/01 08:52:51;;;;;;;1.80;0.10;;;;;;;12.98;100.00;99624.34;104639;1255;60299;-47
2023/05/01 08:55:18;;;;;;;1.30;0.10;;;;;;;13.04;100.00;99627.02;105891;1251;62617;-49
2023/05/01 08:57:45;;;;;;;1.50;0.10;;;;;;;13.06;100.00;99618.66;104807;1251;72577;-49
2023/05/01 09:00:19;;;;;;;6.30;0.10;;;;;;;13.08;100.00;99629.36;104770;1257;69587;-49
2023/05/01 09:02:47;;;;;;;1.20;0.10;;;;;;;13.11;100.00;99628.80;106442;1251;72827;-50
2023/05/01 09:05:15;;;;;;;0.30;0.20;;;;;;;13.15;100.00;99625.87;107845;1254;61939;-47
2023/05/01 09:07:42;;;;;;;1.70;0.10;;;;;;;13.21;100.00;99631.25;104896;1258;60796;-49
2023/05/01 09:10:10;;;;;;;0.20;0.10;;;;;;;13.25;100.00;99637.70;109108;1251;72864;-52
2023/05/01 09:12:37;;;;;;;2.70;0.10;;;;;;;13.25;100.00;99632.48;109172;1251;69361;-51
2023/05/01 09:15:06;;;;;;;0.30;0.10;;;;;;;13.27;100.00;99635.27;109157;1251;73573;-49
2023/05/01 09:17:33;;;;;;;0.10;0.10;;;;;;;13.28;100.00;99640.38;109116;1251;61587;-49
2023/05/01 09:20:05;;;;;;;1.00;0.10;;;;;;;13.31;100.00;99638.95;109287;1251;60990;-52
2023/05/01 09:22:32;;;;;;;1.10;0.10;;;;;;;13.33;100.00;99644.59;109142;1253;72911;-49
2023/05/01 09:24:59;;;;;;;1.60;0.10;;;;;;;13.36;100.00;99648.20;109072;1253;67716;-51
2023/05/01 09:27:26;;;;;;;1.50;0.10;;;;;;;13.33;100.00;99652.88;108970;1253;73963;-48
2023/05/01 09:29:53;;;;;;;0.90;0.10;;;;;;;13.31;100.00;99643.11;108982;1251;60182;-49
2023/05/01 09:32:26;;;;;;;0.20;0.10;;;;;;;13.33;100.00;99644.99;109062;1253;62120;-48
2023/05/01 09:34:55;;;;;;;0.20;0.10;;;;;;;13.37;100.00;99641.27;109185;1251;71877;-48
2023/05/01 09:37:28;;;;;;;1.10;0.10;;;;;;;13.42;100.00;99644.06;109269;1251;68412;-49
2023/05/01 09:40:12;;;;;;;0.90;0.10;;;;;;;13.46;100.00;99641.99;109151;1251;71070;-52
2023/05/01 09:42:40;;;;;;;0.40;0.10;;;;;;;13.53;100.00;99651.12;106673;1253;62697;-50
2023/05/01 09:45:13;;;;;;;0.10;0.10;;;;;;;13.57;100.00;99653.39;107554;1253;60797;-45
2023/05/01 09:47:42;;;;;;;1.70;0.10;;;;;;;13.56;100.00;99652.86;105352;1253;76046;-48
2023/05/01 09:50:12;;;;;;;0.30;0.10;;;;;;;13.56;100.00;99648.90;105535;1254;66302;-50
2023/05/01 09:52:39;;;;;;;0.80;0.10;;;;;;;13.65;100.00;99648.36;105555;1257;73956;-47
2023/05/01 09:55:16;;;;;;;1.40;0.10;;;;;;;13.76;100.00;99643.55;105068;1253;61440;-50
2023/05/01 09:57:44;;;;;;;0.20;0.10;;;;;;;13.84;100.00;99649.90;105242;1257;61409;-49
2023/05/01 10:00:13;;;;;;;0.90;0.10;;;;;;;13.87;100.00;99650.54;105068;1251;74236;-49
2023/05/01 10:02:41;;;;;;;2.30;0.10;;;;;;;13.86;100.00;99650.86;105249;1253;66308;-49
2023/05/01 10:05:09;;;;;;;0.10;0.10;;;;;;;13.84;100.00;99654.39;105196;1257;72924;-49
2023/05/01 10:07:36;;;;;;;4.00;0.20;;;;;;;13.86;100.00;99652.83;105025;1259;60531;-50
2023/05/01 10:10:16;;;;;;;1.20;0.10;;;;;;;13.86;100.00;99654.60;105148;1259;60485;-49
2023/05/01 10:12:43;;;;;;;0.30;0.10;;;;;;;13.87;100.00;99653.33;105013;1255;74294;-51
2023/05/01 10:15:10;;;;;;;0.20;0.10;;;;;;;13.86;100.00;99653.20;105026;1256;66509;-46
2023/05/01 10:17:51;;;;;;;0.70;0.10;;;;;;;13.87;100.00;99660.33;105280;1253;73077;-49
2023/05/01 10:20:18;;;;;;;0.80;0.10;;;;;;;13.89;100.00;99651.86;105162;1254;61872;-48
2023/05/01 10:22:45;;;;;;;0.70;0.10;;;;;;;13.94;100.00;99659.71;109044;1252;60107;-50
2023/05/01 10:25:12;;;;;;;0.10;0.00;;;;;;;13.98;100.00;99659.08;109182;1252;76123;-48
2023/05/01 10:27:39;;;;;;;0.20;0.10;;;;;;;14.03;100.00;99656.25;106140;1252;68521;-51
2023/05/01 10:30:07;;;;;;;0.30;0.00;;;;;;;14.09;100.00;99660.02;105668;1254;171182;-48
2023/05/01 10:34:30;;;;;;;0.10;0.10;;;;;;;14.22;100.00;99664.71;101565;1298;600898;-49
2023/05/01 10:37:03;;;;;;;2.30;0.10;;;;;;;14.20;100.00;99660.88;105573;1270;61015;-50
2023/05/01 10:39:35;;;;;;;0.20;0.10;;;;;;;14.19;100.00;99666.20;104153;1271;60463;-49
2023/05/01 10:42:03;;;;;;;0.80;0.10;;;;;;;14.23;100.00;99669.17;103947;1274;74136;-49
2023/05/01 10:44:30;;;;;;;0.20;0.10;;;;;;;14.26;100.00;99670.09;103858;1268;67959;-50
2023/05/01 10:46:57;;;;;;;0.80;0.10;;;;;;;14.24;100.00;99665.11;104012;1270;160705;-51
2023/05/01 10:49:24;;;;;;;0.10;0.10;;;;;;;14.24;100.00;99666.93;104663;1267;60483;-53
2023/05/01 10:51:57;;;;;;;0.20;0.10;;;;;;;14.25;100.00;99667.79;104360;1267;61457;-51
2023/05/01 10:54:25;;;;;;;1.60;0.10;;;;;;;14.28;100.00;99671.22;104048;1268;73034;-51
2023/05/01 10:56:57;;;;;;;2.60;0.10;;;;;;;14.32;100.00;99674.39;104695;1264;67561;-50
2023/05/01 10:59:24;;;;;;;2.00;0.10;;;;;;;14.34;100.00;99677.12;105012;1264;72955;-48
2023/05/01 11:01:51;;;;;;;0.10;0.00;;;;;;;14.36;100.00;99671.93;104257;1263;60853;-52
2023/05/01 11:04:25;;;;;;;0.50;0.10;;;;;;;14.37;100.00;99669.32;104631;1268;61172;-52
2023/05/01 11:07:06;;;;;;;0.30;0.10;;;;;;;14.44;100.00;99670.92;104476;1263;74558;-50
2023/05/01 11:09:37;;;;;;;0.20;0.10;;;;;;;14.50;100.00;99674.14;104459;1268;69215;-51
2023/05/01 11:12:05;;;;;;;0.60;0.10;;;;;;;14.53;100.00;99667.60;104282;1264;71555;-50
2023/05/01 11:14:51;;;;;;;0.10;0.10;;;;;;;14.53;100.00;99672.29;104159;1263;61157;-49
2023/05/01 11:17:48;;;;;;;0.10;0.10;;;;;;;14.59;100.00;99669.38;104273;1265;61446;-48
2023/05/01 11:20:24;;;;;;;0.30;0.10;;;;;;;14.67;100.00;99666.50;104083;1264;75354;-51
2023/05/01 11:22:52;;;;;;;0.10;0.10;;;;;;;14.70;100.00;99663.61;104152;1264;69221;-51
2023/05/01 11:25:20;;;;;;;2.20;0.10;;;;;;;14.72;100.00;99672.27;106679;1264;73157;-50
2023/05/01 11:27:51;;;;;;;0.20;0.10;;;;;;;14.71;100.00;99677.23;103981;1268;61916;-52
2023/05/01 11:30:18;;;;;;;1.00;0.10;;;;;;;14.69;100.00;99676.67;105447;1268;62067;-48
2023/05/01 11:32:46;;;;;;;3.50;0.10;;;;;;;14.65;100.00;99669.86;103947;1270;74537;-50